sensor_id;sensor_type;location;lat;lon;timestamp;pressure;altitude;pressure_sealevel;temperature
19644;BMP180;9970;-36.854;174.870;2022-07-17T00:02:00;102516.00;;;12.70
19644;BMP180;9970;-36.854;174.870;2022-07-17T00:04:33;102525.00;;;12.70
19644;BMP180;9970;-36.854;174.870;2022-07-17T00:07:06;102532.00;;;12.80
19644;BMP180;9970;-36.854;174.870;2022-07-17T00:09:39;102537.00;;;12.80
19644;BMP180;9970;-36.854;174.870;2022-07-17T00:12:12;102520.00;;;12.80
19644;BMP180;9970;-36.854;174.870;2022-07-17T00:14:45;102524.00;;;12.70
19644;BMP180;9970;-36.854;174.870;2022-07-17T00:17:18;102521.00;;;12.80
19644;BMP180;9970;-36.854;174.870;2022-07-17T00:19:52;102533.00;;;12.80
19644;BMP180;9970;-36.854;174.870;2022-07-17T00:22:26;102532.00;;;12.80
19644;BMP180;9970;-36.854;174.870;2022-07-17T00:24:59;102544.00;;;12.80
19644;BMP180;9970;-36.854;174.870;2022-07-17T00:27:32;102544.00;;;12.80
19644;BMP180;9970;-36.854;174.870;2022-07-17T00:30:06;102535.00;;;12.80
19644;BMP180;9970;-36.854;174.870;2022-07-17T00:32:42;102532.00;;;12.80
19644;BMP180;9970;-36.854;174.870;2022-07-17T00:35:15;102530.00;;;12.80
19644;BMP180;9970;-36.854;174.870;2022-07-17T00:37:49;102529.00;;;12.90
19644;BMP180;9970;-36.854;174.870;2022-07-17T00:40:26;102531.00;;;12.90
19644;BMP180;9970;-36.854;174.870;2022-07-17T00:43:00;102527.00;;;12.90
19644;BMP180;9970;-36.854;174.870;2022-07-17T00:45:33;102529.00;;;12.90
19644;BMP180;9970;-36.854;174.870;2022-07-17T00:48:09;102521.00;;;12.80
19644;BMP180;9970;-36.854;174.870;2022-07-17T00:50:42;102520.00;;;12.80
19644;BMP180;9970;-36.854;174.870;2022-07-17T00:53:16;102516.00;;;12.80
19644;BMP180;9970;-36.854;174.870;2022-07-17T00:55:49;102511.00;;;12.80
19644;BMP180;9970;-36.854;174.870;2022-07-17T00:58:27;102518.00;;;12.80
19644;BMP180;9970;-36.854;174.870;2022-07-17T01:01:06;102529.00;;;12.80
19644;BMP180;9970;-36.854;174.870;2022-07-17T01:03:39;102519.00;;;12.80
19644;BMP180;9970;-36.854;174.870;2022-07-17T01:06:19;102519.00;;;12.80
19644;BMP180;9970;-36.854;174.870;2022-07-17T01:08:52;102522.00;;;12.80
19644;BMP180;9970;-36.854;174.870;2022-07-17T01:11:25;102523.00;;;12.80
19644;BMP180;9970;-36.854;174.870;2022-07-17T01:13:59;102515.00;;;12.80
19644;BMP180;9970;-36.854;174.870;2022-07-17T01:16:33;102515.00;;;12.90
19644;BMP180;9970;-36.854;174.870;2022-07-17T01:19:07;102516.00;;;12.90
19644;BMP180;9970;-36.854;174.870;2022-07-17T01:21:45;102511.00;;;12.90
19644;BMP180;9970;-36.854;174.870;2022-07-17T01:24:18;102506.00;;;12.90
19644;BMP180;9970;-36.854;174.870;2022-07-17T01:26:51;102508.00;;;12.90
19644;BMP180;9970;-36.854;174.870;2022-07-17T01:29:25;102508.00;;;12.90
19644;BMP180;9970;-36.854;174.870;2022-07-17T01:31:58;102512.00;;;12.90
19644;BMP180;9970;-36.854;174.870;2022-07-17T01:34:31;102511.00;;;12.90
19644;BMP180;9970;-36.854;174.870;2022-07-17T01:37:05;102517.00;;;13.00
19644;BMP180;9970;-36.854;174.870;2022-07-17T01:39:38;102516.00;;;13.00
19644;BMP180;9970;-36.854;174.870;2022-07-17T01:42:27;102507.00;;;13.10
19644;BMP180;9970;-36.854;174.870;2022-07-17T01:45:00;102513.00;;;13.10
19644;BMP180;9970;-36.854;174.870;2022-07-17T01:47:34;102521.00;;;13.10
19644;BMP180;9970;-36.854;174.870;2022-07-17T01:50:13;102519.00;;;13.10
19644;BMP180;9970;-36.854;174.870;2022-07-17T01:52:51;102508.00;;;13.20
19644;BMP180;9970;-36.854;174.870;2022-07-17T01:55:24;102502.00;;;13.20
19644;BMP180;9970;-36.854;174.870;2022-07-17T01:57:57;102494.00;;;13.20
19644;BMP180;9970;-36.854;174.870;2022-07-17T02:00:30;102498.00;;;13.20
19644;BMP180;9970;-36.854;174.870;2022-07-17T02:03:03;102503.00;;;13.20
19644;BMP180;9970;-36.854;174.870;2022-07-17T02:05:36;102519.00;;;13.20
19644;BMP180;9970;-36.854;174.870;2022-07-17T02:08:10;102517.00;;;13.20
19644;BMP180;9970;-36.854;174.870;2022-07-17T02:10:45;102520.00;;;13.20
19644;BMP180;9970;-36.854;174.870;2022-07-17T02:13:20;102507.00;;;13.20
19644;BMP180;9970;-36.854;174.870;2022-07-17T02:15:54;102506.00;;;13.20
19644;BMP180;9970;-36.854;174.870;2022-07-17T02:18:26;102508.00;;;13.20
19644;BMP180;9970;-36.854;174.870;2022-07-17T02:21:00;102507.00;;;13.20
19644;BMP180;9970;-36.854;174.870;2022-07-17T02:23:33;102513.00;;;13.20
19644;BMP180;9970;-36.854;174.870;2022-07-17T02:26:06;102508.00;;;13.20
19644;BMP180;9970;-36.854;174.870;2022-07-17T02:28:40;102518.00;;;13.30
19644;BMP180;9970;-36.854;174.870;2022-07-17T02:31:13;102510.00;;;13.30
19644;BMP180;9970;-36.854;174.870;2022-07-17T02:33:46;102511.00;;;13.30
19644;BMP180;9970;-36.854;174.870;2022-07-17T02:36:19;102513.00;;;13.20
19644;BMP180;9970;-36.854;174.870;2022-07-17T02:38:51;102523.00;;;13.20
19644;BMP180;9970;-36.854;174.870;2022-07-17T02:41:24;102520.00;;;13.20
19644;BMP180;9970;-36.854;174.870;2022-07-17T02:43:59;102516.00;;;13.10
19644;BMP180;9970;-36.854;174.870;2022-07-17T02:46:32;102513.00;;;13.10
19644;BMP180;9970;-36.854;174.870;2022-07-17T02:49:05;102520.00;;;13.10
19644;BMP180;9970;-36.854;174.870;2022-07-17T02:51:38;102520.00;;;13.10
19644;BMP180;9970;-36.854;174.870;2022-07-17T02:54:11;102520.00;;;13.00
19644;BMP180;9970;-36.854;174.870;2022-07-17T02:56:44;102519.00;;;13.00
19644;BMP180;9970;-36.854;174.870;2022-07-17T02:59:17;102515.00;;;13.00
19644;BMP180;9970;-36.854;174.870;2022-07-17T03:01:50;102520.00;;;13.00
19644;BMP180;9970;-36.854;174.870;2022-07-17T03:04:24;102525.00;;;13.00
19644;BMP180;9970;-36.854;174.870;2022-07-17T03:06:57;102524.00;;;13.00
19644;BMP180;9970;-36.854;174.870;2022-07-17T03:09:29;102531.00;;;12.90
19644;BMP180;9970;-36.854;174.870;2022-07-17T03:12:03;102521.00;;;12.90
19644;BMP180;9970;-36.854;174.870;2022-07-17T03:14:36;102523.00;;;12.90
19644;BMP180;9970;-36.854;174.870;2022-07-17T03:17:10;102540.00;;;12.90
19644;BMP180;9970;-36.854;174.870;2022-07-17T03:19:44;102534.00;;;12.90
19644;BMP180;9970;-36.854;174.870;2022-07-17T03:22:17;102540.00;;;12.90
19644;BMP180;9970;-36.854;174.870;2022-07-17T03:24:50;102540.00;;;12.90
19644;BMP180;9970;-36.854;174.870;2022-07-17T03:27:24;102546.00;;;12.90
19644;BMP180;9970;-36.854;174.870;2022-07-17T03:30:01;102543.00;;;12.90
19644;BMP180;9970;-36.854;174.870;2022-07-17T03:32:34;102545.00;;;12.90
19644;BMP180;9970;-36.854;174.870;2022-07-17T03:35:08;102549.00;;;12.90
19644;BMP180;9970;-36.854;174.870;2022-07-17T03:37:41;102550.00;;;12.90
19644;BMP180;9970;-36.854;174.870;2022-07-17T03:40:15;102563.00;;;12.90
19644;BMP180;9970;-36.854;174.870;2022-07-17T03:42:48;102551.00;;;12.90
19644;BMP180;9970;-36.854;174.870;2022-07-17T03:45:22;102550.00;;;12.90
19644;BMP180;9970;-36.854;174.870;2022-07-17T03:47:55;102550.00;;;12.90
19644;BMP180;9970;-36.854;174.870;2022-07-17T03:50:28;102556.00;;;12.90
19644;BMP180;9970;-36.854;174.870;2022-07-17T03:53:01;102560.00;;;12.90
19644;BMP180;9970;-36.854;174.870;2022-07-17T03:55:34;102552.00;;;12.80
19644;BMP180;9970;-36.854;174.870;2022-07-17T03:58:11;102547.00;;;12.80
19644;BMP180;9970;-36.854;174.870;2022-07-17T04:00:43;102554.00;;;12.80
19644;BMP180;9970;-36.854;174.870;2022-07-17T04:03:16;102556.00;;;12.80
19644;BMP180;9970;-36.854;174.870;2022-07-17T04:05:49;102552.00;;;12.80
19644;BMP180;9970;-36.854;174.870;2022-07-17T04:08:23;102560.00;;;12.80
19644;BMP180;9970;-36.854;174.870;2022-07-17T04:10:56;102555.00;;;12.80
19644;BMP180;9970;-36.854;174.870;2022-07-17T04:13:30;102543.00;;;12.80
19644;BMP180;9970;-36.854;174.870;2022-07-17T04:16:03;102543.00;;;12.80
19644;BMP180;9970;-36.854;174.870;2022-07-17T04:18:37;102539.00;;;12.70
19644;BMP180;9970;-36.854;174.870;2022-07-17T04:21:11;102536.00;;;12.70
19644;BMP180;9970;-36.854;174.870;2022-07-17T04:23:44;102551.00;;;12.70
19644;BMP180;9970;-36.854;174.870;2022-07-17T04:26:17;102552.00;;;12.70
19644;BMP180;9970;-36.854;174.870;2022-07-17T04:28:50;102547.00;;;12.70
19644;BMP180;9970;-36.854;174.870;2022-07-17T04:31:23;102553.00;;;12.70
19644;BMP180;9970;-36.854;174.870;2022-07-17T04:33:56;102556.00;;;12.70
19644;BMP180;9970;-36.854;174.870;2022-07-17T04:36:29;102567.00;;;12.70
19644;BMP180;9970;-36.854;174.870;2022-07-17T04:39:02;102569.00;;;12.70
19644;BMP180;9970;-36.854;174.870;2022-07-17T04:41:35;102570.00;;;12.70
19644;BMP180;9970;-36.854;174.870;2022-07-17T04:44:08;102569.00;;;12.70
19644;BMP180;9970;-36.854;174.870;2022-07-17T04:46:42;102568.00;;;12.70
19644;BMP180;9970;-36.854;174.870;2022-07-17T04:49:15;102568.00;;;12.70
19644;BMP180;9970;-36.854;174.870;2022-07-17T04:51:52;102566.00;;;12.70
19644;BMP180;9970;-36.854;174.870;2022-07-17T04:54:25;102564.00;;;12.70
19644;BMP180;9970;-36.854;174.870;2022-07-17T04:56:58;102561.00;;;12.60
19644;BMP180;9970;-36.854;174.870;2022-07-17T04:59:31;102567.00;;;12.70
19644;BMP180;9970;-36.854;174.870;2022-07-17T05:02:05;102564.00;;;12.60
19644;BMP180;9970;-36.854;174.870;2022-07-17T05:04:38;102567.00;;;12.60
19644;BMP180;9970;-36.854;174.870;2022-07-17T05:07:11;102569.00;;;12.70
19644;BMP180;9970;-36.854;174.870;2022-07-17T05:09:44;102575.00;;;12.70
19644;BMP180;9970;-36.854;174.870;2022-07-17T05:12:17;102584.00;;;12.70
19644;BMP180;9970;-36.854;174.870;2022-07-17T05:14:50;102590.00;;;12.70
19644;BMP180;9970;-36.854;174.870;2022-07-17T05:17:24;102588.00;;;12.60
19644;BMP180;9970;-36.854;174.870;2022-07-17T05:19:57;102593.00;;;12.60
19644;BMP180;9970;-36.854;174.870;2022-07-17T05:22:30;102591.00;;;12.60
19644;BMP180;9970;-36.854;174.870;2022-07-17T05:25:03;102590.00;;;12.60
19644;BMP180;9970;-36.854;174.870;2022-07-17T05:27:37;102603.00;;;12.60
19644;BMP180;9970;-36.854;174.870;2022-07-17T05:30:11;102603.00;;;12.60
19644;BMP180;9970;-36.854;174.870;2022-07-17T05:32:44;102600.00;;;12.60
19644;BMP180;9970;-36.854;174.870;2022-07-17T05:35:19;102600.00;;;12.50
19644;BMP180;9970;-36.854;174.870;2022-07-17T05:37:53;102597.00;;;12.50
19644;BMP180;9970;-36.854;174.870;2022-07-17T05:40:26;102590.00;;;12.50
19644;BMP180;9970;-36.854;174.870;2022-07-17T05:42:59;102591.00;;;12.50
19644;BMP180;9970;-36.854;174.870;2022-07-17T05:45:37;102601.00;;;12.40
19644;BMP180;9970;-36.854;174.870;2022-07-17T05:48:10;102608.00;;;12.40
19644;BMP180;9970;-36.854;174.870;2022-07-17T05:50:43;102603.00;;;12.40
19644;BMP180;9970;-36.854;174.870;2022-07-17T05:53:16;102606.00;;;12.40
19644;BMP180;9970;-36.854;174.870;2022-07-17T05:55:49;102605.00;;;12.30
19644;BMP180;9970;-36.854;174.870;2022-07-17T05:58:22;102610.00;;;12.30
19644;BMP180;9970;-36.854;174.870;2022-07-17T06:00:55;102616.00;;;12.30
19644;BMP180;9970;-36.854;174.870;2022-07-17T06:03:28;102617.00;;;12.30
19644;BMP180;9970;-36.854;174.870;2022-07-17T06:06:01;102614.00;;;12.20
19644;BMP180;9970;-36.854;174.870;2022-07-17T06:08:34;102619.00;;;12.20
19644;BMP180;9970;-36.854;174.870;2022-07-17T06:11:07;102623.00;;;12.20
19644;BMP180;9970;-36.854;174.870;2022-07-17T06:13:40;102630.00;;;12.20
19644;BMP180;9970;-36.854;174.870;2022-07-17T06:16:18;102632.00;;;12.10
19644;BMP180;9970;-36.854;174.870;2022-07-17T06:18:51;102626.00;;;12.10
19644;BMP180;9970;-36.854;174.870;2022-07-17T06:21:24;102640.00;;;12.10
19644;BMP180;9970;-36.854;174.870;2022-07-17T06:23:58;102643.00;;;12.10
19644;BMP180;9970;-36.854;174.870;2022-07-17T06:26:33;102646.00;;;12.10
19644;BMP180;9970;-36.854;174.870;2022-07-17T06:29:09;102644.00;;;12.00
19644;BMP180;9970;-36.854;174.870;2022-07-17T06:31:42;102644.00;;;12.00
19644;BMP180;9970;-36.854;174.870;2022-07-17T06:34:15;102632.00;;;11.90
19644;BMP180;9970;-36.854;174.870;2022-07-17T06:36:48;102631.00;;;11.90
19644;BMP180;9970;-36.854;174.870;2022-07-17T06:39:21;102634.00;;;11.90
19644;BMP180;9970;-36.854;174.870;2022-07-17T06:41:54;102644.00;;;11.90
19644;BMP180;9970;-36.854;174.870;2022-07-17T06:44:27;102633.00;;;11.90
19644;BMP180;9970;-36.854;174.870;2022-07-17T06:47:05;102647.00;;;11.80
19644;BMP180;9970;-36.854;174.870;2022-07-17T06:49:38;102650.00;;;11.80
19644;BMP180;9970;-36.854;174.870;2022-07-17T06:52:11;102651.00;;;11.80
19644;BMP180;9970;-36.854;174.870;2022-07-17T06:54:44;102647.00;;;11.80
19644;BMP180;9970;-36.854;174.870;2022-07-17T06:57:17;102654.00;;;11.80
19644;BMP180;9970;-36.854;174.870;2022-07-17T06:59:50;102654.00;;;11.80
19644;BMP180;9970;-36.854;174.870;2022-07-17T07:02:23;102650.00;;;11.70
19644;BMP180;9970;-36.854;174.870;2022-07-17T07:04:56;102650.00;;;11.70
19644;BMP180;9970;-36.854;174.870;2022-07-17T07:07:29;102647.00;;;11.70
19644;BMP180;9970;-36.854;174.870;2022-07-17T07:10:02;102642.00;;;11.70
19644;BMP180;9970;-36.854;174.870;2022-07-17T07:12:35;102648.00;;;11.70
19644;BMP180;9970;-36.854;174.870;2022-07-17T07:15:09;102648.00;;;11.70
19644;BMP180;9970;-36.854;174.870;2022-07-17T07:17:42;102644.00;;;11.60
19644;BMP180;9970;-36.854;174.870;2022-07-17T07:20:15;102653.00;;;11.60
19644;BMP180;9970;-36.854;174.870;2022-07-17T07:22:48;102643.00;;;11.60
19644;BMP180;9970;-36.854;174.870;2022-07-17T07:25:24;102645.00;;;11.60
19644;BMP180;9970;-36.854;174.870;2022-07-17T07:27:57;102640.00;;;11.60
19644;BMP180;9970;-36.854;174.870;2022-07-17T07:30:30;102644.00;;;11.60
19644;BMP180;9970;-36.854;174.870;2022-07-17T07:33:05;102652.00;;;11.60
19644;BMP180;9970;-36.854;174.870;2022-07-17T07:35:38;102650.00;;;11.50
19644;BMP180;9970;-36.854;174.870;2022-07-17T07:38:12;102649.00;;;11.50
19644;BMP180;9970;-36.854;174.870;2022-07-17T07:40:45;102653.00;;;11.50
19644;BMP180;9970;-36.854;174.870;2022-07-17T07:43:22;102643.00;;;11.50
19644;BMP180;9970;-36.854;174.870;2022-07-17T07:45:55;102642.00;;;11.50
19644;BMP180;9970;-36.854;174.870;2022-07-17T07:48:28;102647.00;;;11.50
19644;BMP180;9970;-36.854;174.870;2022-07-17T07:51:02;102646.00;;;11.50
19644;BMP180;9970;-36.854;174.870;2022-07-17T07:53:35;102657.00;;;11.40
19644;BMP180;9970;-36.854;174.870;2022-07-17T07:56:08;102666.00;;;11.40
19644;BMP180;9970;-36.854;174.870;2022-07-17T07:58:41;102661.00;;;11.40
19644;BMP180;9970;-36.854;174.870;2022-07-17T08:01:14;102665.00;;;11.40
19644;BMP180;9970;-36.854;174.870;2022-07-17T08:03:47;102671.00;;;11.40
19644;BMP180;9970;-36.854;174.870;2022-07-17T08:06:20;102672.00;;;11.40
19644;BMP180;9970;-36.854;174.870;2022-07-17T08:08:53;102663.00;;;11.40
19644;BMP180;9970;-36.854;174.870;2022-07-17T08:11:29;102678.00;;;11.30
19644;BMP180;9970;-36.854;174.870;2022-07-17T08:14:02;102669.00;;;11.30
19644;BMP180;9970;-36.854;174.870;2022-07-17T08:16:41;102670.00;;;11.30
19644;BMP180;9970;-36.854;174.870;2022-07-17T08:19:18;102675.00;;;11.30
19644;BMP180;9970;-36.854;174.870;2022-07-17T08:21:51;102672.00;;;11.30
19644;BMP180;9970;-36.854;174.870;2022-07-17T08:24:24;102680.00;;;11.20
19644;BMP180;9970;-36.854;174.870;2022-07-17T08:26:57;102684.00;;;11.20
19644;BMP180;9970;-36.854;174.870;2022-07-17T08:29:30;102683.00;;;11.20
19644;BMP180;9970;-36.854;174.870;2022-07-17T08:32:05;102692.00;;;11.10
19644;BMP180;9970;-36.854;174.870;2022-07-17T08:34:38;102702.00;;;11.10
19644;BMP180;9970;-36.854;174.870;2022-07-17T08:37:11;102699.00;;;11.10
19644;BMP180;9970;-36.854;174.870;2022-07-17T08:39:44;102699.00;;;11.10
19644;BMP180;9970;-36.854;174.870;2022-07-17T08:42:17;102704.00;;;11.00
19644;BMP180;9970;-36.854;174.870;2022-07-17T08:44:50;102707.00;;;11.00
19644;BMP180;9970;-36.854;174.870;2022-07-17T08:47:23;102709.00;;;11.00
19644;BMP180;9970;-36.854;174.870;2022-07-17T08:49:56;102708.00;;;11.00
19644;BMP180;9970;-36.854;174.870;2022-07-17T08:52:30;102704.00;;;11.00
19644;BMP180;9970;-36.854;174.870;2022-07-17T08:55:03;102699.00;;;11.00
19644;BMP180;9970;-36.854;174.870;2022-07-17T08:57:38;102699.00;;;11.00
19644;BMP180;9970;-36.854;174.870;2022-07-17T09:00:16;102690.00;;;11.00
19644;BMP180;9970;-36.854;174.870;2022-07-17T09:03:04;102698.00;;;11.00
19644;BMP180;9970;-36.854;174.870;2022-07-17T09:05:41;102693.00;;;10.90
19644;BMP180;9970;-36.854;174.870;2022-07-17T09:08:21;102706.00;;;10.90
19644;BMP180;9970;-36.854;174.870;2022-07-17T09:10:55;102701.00;;;10.90
19644;BMP180;9970;-36.854;174.870;2022-07-17T09:13:29;102702.00;;;10.80
19644;BMP180;9970;-36.854;174.870;2022-07-17T09:16:10;102703.00;;;10.80
19644;BMP180;9970;-36.854;174.870;2022-07-17T09:18:45;102693.00;;;10.80
19644;BMP180;9970;-36.854;174.870;2022-07-17T09:21:19;102690.00;;;10.80
19644;BMP180;9970;-36.854;174.870;2022-07-17T09:24:02;102688.00;;;10.80
19644;BMP180;9970;-36.854;174.870;2022-07-17T09:26:43;102682.00;;;10.80
19644;BMP180;9970;-36.854;174.870;2022-07-17T09:29:11;102688.00;;;10.80
19644;BMP180;9970;-36.854;174.870;2022-07-17T09:31:44;102690.00;;;10.80
19644;BMP180;9970;-36.854;174.870;2022-07-17T09:34:18;102692.00;;;10.80
19644;BMP180;9970;-36.854;174.870;2022-07-17T09:37:01;102690.00;;;10.80
19644;BMP180;9970;-36.854;174.870;2022-07-17T09:39:38;102686.00;;;10.70
19644;BMP180;9970;-36.854;174.870;2022-07-17T09:42:22;102690.00;;;10.70
19644;BMP180;9970;-36.854;174.870;2022-07-17T09:44:57;102689.00;;;10.70
19644;BMP180;9970;-36.854;174.870;2022-07-17T09:47:32;102683.00;;;10.70
19644;BMP180;9970;-36.854;174.870;2022-07-17T09:50:09;102685.00;;;10.60
19644;BMP180;9970;-36.854;174.870;2022-07-17T09:52:43;102676.00;;;10.60
19644;BMP180;9970;-36.854;174.870;2022-07-17T09:55:18;102687.00;;;10.60
19644;BMP180;9970;-36.854;174.870;2022-07-17T09:57:54;102688.00;;;10.60
19644;BMP180;9970;-36.854;174.870;2022-07-17T10:00:28;102705.00;;;10.60
19644;BMP180;9970;-36.854;174.870;2022-07-17T10:03:01;102704.00;;;10.60
19644;BMP180;9970;-36.854;174.870;2022-07-17T10:05:34;102698.00;;;10.50
19644;BMP180;9970;-36.854;174.870;2022-07-17T10:08:08;102697.00;;;10.50
19644;BMP180;9970;-36.854;174.870;2022-07-17T10:10:42;102713.00;;;10.50
19644;BMP180;9970;-36.854;174.870;2022-07-17T10:13:15;102712.00;;;10.50
19644;BMP180;9970;-36.854;174.870;2022-07-17T10:15:49;102706.00;;;10.50
19644;BMP180;9970;-36.854;174.870;2022-07-17T10:18:34;102699.00;;;10.50
19644;BMP180;9970;-36.854;174.870;2022-07-17T10:21:14;102701.00;;;10.50
19644;BMP180;9970;-36.854;174.870;2022-07-17T10:26:41;102693.00;;;10.40
19644;BMP180;9970;-36.854;174.870;2022-07-17T10:32:07;102707.00;;;10.40
19644;BMP180;9970;-36.854;174.870;2022-07-17T10:34:49;102717.00;;;10.40
19644;BMP180;9970;-36.854;174.870;2022-07-17T10:37:27;102709.00;;;10.40
19644;BMP180;9970;-36.854;174.870;2022-07-17T10:40:05;102712.00;;;10.40
19644;BMP180;9970;-36.854;174.870;2022-07-17T10:43:14;102714.00;;;10.30
19644;BMP180;9970;-36.854;174.870;2022-07-17T10:48:01;102716.00;;;10.30
19644;BMP180;9970;-36.854;174.870;2022-07-17T10:50:44;102713.00;;;10.30
19644;BMP180;9970;-36.854;174.870;2022-07-17T10:53:30;102715.00;;;10.30
19644;BMP180;9970;-36.854;174.870;2022-07-17T10:56:08;102721.00;;;10.30
19644;BMP180;9970;-36.854;174.870;2022-07-17T10:58:45;102716.00;;;10.20
19644;BMP180;9970;-36.854;174.870;2022-07-17T11:01:22;102713.00;;;10.20
19644;BMP180;9970;-36.854;174.870;2022-07-17T11:03:56;102707.00;;;10.30
19644;BMP180;9970;-36.854;174.870;2022-07-17T11:06:36;102706.00;;;10.30
19644;BMP180;9970;-36.854;174.870;2022-07-17T11:09:05;102701.00;;;10.30
19644;BMP180;9970;-36.854;174.870;2022-07-17T11:11:51;102701.00;;;10.20
19644;BMP180;9970;-36.854;174.870;2022-07-17T11:14:22;102691.00;;;10.20
19644;BMP180;9970;-36.854;174.870;2022-07-17T11:17:00;102701.00;;;10.20
19644;BMP180;9970;-36.854;174.870;2022-07-17T11:19:35;102704.00;;;10.20
19644;BMP180;9970;-36.854;174.870;2022-07-17T11:22:10;102713.00;;;10.20
19644;BMP180;9970;-36.854;174.870;2022-07-17T11:24:49;102708.00;;;10.20
19644;BMP180;9970;-36.854;174.870;2022-07-17T11:27:26;102706.00;;;10.10
19644;BMP180;9970;-36.854;174.870;2022-07-17T11:30:01;102711.00;;;10.10
19644;BMP180;9970;-36.854;174.870;2022-07-17T11:32:35;102708.00;;;10.10
19644;BMP180;9970;-36.854;174.870;2022-07-17T11:35:21;102711.00;;;10.10
19644;BMP180;9970;-36.854;174.870;2022-07-17T11:37:56;102703.00;;;10.10
19644;BMP180;9970;-36.854;174.870;2022-07-17T11:40:29;102710.00;;;10.10
19644;BMP180;9970;-36.854;174.870;2022-07-17T11:43:03;102694.00;;;10.10
19644;BMP180;9970;-36.854;174.870;2022-07-17T11:45:36;102696.00;;;10.10
19644;BMP180;9970;-36.854;174.870;2022-07-17T11:48:10;102695.00;;;10.10
19644;BMP180;9970;-36.854;174.870;2022-07-17T11:50:54;102692.00;;;10.00
19644;BMP180;9970;-36.854;174.870;2022-07-17T11:53:38;102686.00;;;10.00
19644;BMP180;9970;-36.854;174.870;2022-07-17T11:56:19;102669.00;;;10.00
19644;BMP180;9970;-36.854;174.870;2022-07-17T11:58:47;102676.00;;;10.00
19644;BMP180;9970;-36.854;174.870;2022-07-17T12:01:21;102689.00;;;10.00
19644;BMP180;9970;-36.854;174.870;2022-07-17T12:03:58;102671.00;;;10.00
19644;BMP180;9970;-36.854;174.870;2022-07-17T12:06:30;102660.00;;;10.00
19644;BMP180;9970;-36.854;174.870;2022-07-17T12:09:08;102656.00;;;9.90
19644;BMP180;9970;-36.854;174.870;2022-07-17T12:11:52;102650.00;;;9.90
19644;BMP180;9970;-36.854;174.870;2022-07-17T12:14:22;102655.00;;;9.90
19644;BMP180;9970;-36.854;174.870;2022-07-17T12:16:56;102664.00;;;9.90
19644;BMP180;9970;-36.854;174.870;2022-07-17T12:19:33;102667.00;;;9.90
19644;BMP180;9970;-36.854;174.870;2022-07-17T12:22:07;102668.00;;;9.90
19644;BMP180;9970;-36.854;174.870;2022-07-17T12:24:44;102671.00;;;9.90
19644;BMP180;9970;-36.854;174.870;2022-07-17T12:27:18;102673.00;;;9.90
19644;BMP180;9970;-36.854;174.870;2022-07-17T12:29:51;102657.00;;;9.80
19644;BMP180;9970;-36.854;174.870;2022-07-17T12:32:24;102660.00;;;9.80
19644;BMP180;9970;-36.854;174.870;2022-07-17T12:34:57;102665.00;;;9.80
19644;BMP180;9970;-36.854;174.870;2022-07-17T12:37:30;102664.00;;;9.80
19644;BMP180;9970;-36.854;174.870;2022-07-17T12:40:03;102674.00;;;9.80
19644;BMP180;9970;-36.854;174.870;2022-07-17T12:42:37;102658.00;;;9.80
19644;BMP180;9970;-36.854;174.870;2022-07-17T12:45:10;102660.00;;;9.80
19644;BMP180;9970;-36.854;174.870;2022-07-17T12:47:43;102674.00;;;9.80
19644;BMP180;9970;-36.854;174.870;2022-07-17T12:50:17;102663.00;;;9.80
19644;BMP180;9970;-36.854;174.870;2022-07-17T12:52:50;102656.00;;;9.80
19644;BMP180;9970;-36.854;174.870;2022-07-17T12:55:24;102663.00;;;9.80
19644;BMP180;9970;-36.854;174.870;2022-07-17T12:57:57;102663.00;;;9.80
19644;BMP180;9970;-36.854;174.870;2022-07-17T13:00:30;102670.00;;;9.80
19644;BMP180;9970;-36.854;174.870;2022-07-17T13:03:04;102664.00;;;9.80
19644;BMP180;9970;-36.854;174.870;2022-07-17T13:05:37;102664.00;;;9.80
19644;BMP180;9970;-36.854;174.870;2022-07-17T13:08:10;102663.00;;;9.80
19644;BMP180;9970;-36.854;174.870;2022-07-17T13:10:43;102668.00;;;9.80
19644;BMP180;9970;-36.854;174.870;2022-07-17T13:13:16;102666.00;;;9.80
19644;BMP180;9970;-36.854;174.870;2022-07-17T13:15:50;102667.00;;;9.80
19644;BMP180;9970;-36.854;174.870;2022-07-17T13:18:26;102669.00;;;9.80
19644;BMP180;9970;-36.854;174.870;2022-07-17T13:20:59;102669.00;;;9.70
19644;BMP180;9970;-36.854;174.870;2022-07-17T13:23:32;102663.00;;;9.70
19644;BMP180;9970;-36.854;174.870;2022-07-17T13:26:09;102663.00;;;9.70
19644;BMP180;9970;-36.854;174.870;2022-07-17T13:28:43;102665.00;;;9.70
19644;BMP180;9970;-36.854;174.870;2022-07-17T13:31:20;102680.00;;;9.70
19644;BMP180;9970;-36.854;174.870;2022-07-17T13:33:53;102690.00;;;9.70
19644;BMP180;9970;-36.854;174.870;2022-07-17T13:36:26;102676.00;;;9.70
19644;BMP180;9970;-36.854;174.870;2022-07-17T13:39:03;102670.00;;;9.70
19644;BMP180;9970;-36.854;174.870;2022-07-17T13:41:37;102679.00;;;9.70
19644;BMP180;9970;-36.854;174.870;2022-07-17T13:44:11;102681.00;;;9.70
19644;BMP180;9970;-36.854;174.870;2022-07-17T13:46:45;102678.00;;;9.70
19644;BMP180;9970;-36.854;174.870;2022-07-17T13:49:18;102685.00;;;9.70
19644;BMP180;9970;-36.854;174.870;2022-07-17T13:51:52;102694.00;;;9.70
19644;BMP180;9970;-36.854;174.870;2022-07-17T13:54:25;102689.00;;;9.70
19644;BMP180;9970;-36.854;174.870;2022-07-17T13:56:59;102697.00;;;9.70
19644;BMP180;9970;-36.854;174.870;2022-07-17T13:59:32;102692.00;;;9.70
19644;BMP180;9970;-36.854;174.870;2022-07-17T14:02:07;102693.00;;;9.70
19644;BMP180;9970;-36.854;174.870;2022-07-17T14:04:40;102696.00;;;9.70
19644;BMP180;9970;-36.854;174.870;2022-07-17T14:07:13;102693.00;;;9.70
19644;BMP180;9970;-36.854;174.870;2022-07-17T14:09:47;102693.00;;;9.70
19644;BMP180;9970;-36.854;174.870;2022-07-17T14:12:20;102697.00;;;9.70
19644;BMP180;9970;-36.854;174.870;2022-07-17T14:14:53;102695.00;;;9.70
19644;BMP180;9970;-36.854;174.870;2022-07-17T14:17:26;102698.00;;;9.70
19644;BMP180;9970;-36.854;174.870;2022-07-17T14:19:59;102702.00;;;9.70
19644;BMP180;9970;-36.854;174.870;2022-07-17T14:22:32;102704.00;;;9.70